sensor_id;sensor_type;location;lat;lon;timestamp;P1;durP1;ratioP1;P2;durP2;ratioP2
8572;SDS011;4324;42.012;24.872;2024-03-06T00:00:48;3.50;;;3.20;;
8572;SDS011;4324;42.012;24.872;2024-03-06T00:03:15;4.00;;;3.57;;
8572;SDS011;4324;42.012;24.872;2024-03-06T00:05:42;3.47;;;3.17;;
8572;SDS011;4324;42.012;24.872;2024-03-06T00:08:10;3.10;;;2.80;;
8572;SDS011;4324;42.012;24.872;2024-03-06T00:10:38;3.73;;;3.30;;
8572;SDS011;4324;42.012;24.872;2024-03-06T00:13:05;3.70;;;3.40;;
8572;SDS011;4324;42.012;24.872;2024-03-06T00:15:31;3.50;;;3.20;;
8572;SDS011;4324;42.012;24.872;2024-03-06T00:17:58;3.47;;;2.70;;
8572;SDS011;4324;42.012;24.872;2024-03-06T00:20:26;3.10;;;2.80;;
8572;SDS011;4324;42.012;24.872;2024-03-06T00:22:53;3.50;;;3.07;;
8572;SDS011;4324;42.012;24.872;2024-03-06T00:25:21;3.27;;;2.97;;
8572;SDS011;4324;42.012;24.872;2024-03-06T00:27:49;3.77;;;3.47;;
8572;SDS011;4324;42.012;24.872;2024-03-06T00:30:16;3.20;;;2.53;;
8572;SDS011;4324;42.012;24.872;2024-03-06T00:32:43;3.50;;;3.20;;
8572;SDS011;4324;42.012;24.872;2024-03-06T00:35:10;3.67;;;3.23;;
8572;SDS011;4324;42.012;24.872;2024-03-06T00:37:37;3.20;;;2.83;;
8572;SDS011;4324;42.012;24.872;2024-03-06T00:40:04;3.10;;;2.80;;
8572;SDS011;4324;42.012;24.872;2024-03-06T00:42:32;3.30;;;3.00;;
8572;SDS011;4324;42.012;24.872;2024-03-06T00:45:02;3.20;;;2.90;;
8572;SDS011;4324;42.012;24.872;2024-03-06T00:47:29;3.37;;;2.70;;
8572;SDS011;4324;42.012;24.872;2024-03-06T00:49:56;2.60;;;2.40;;
8572;SDS011;4324;42.012;24.872;2024-03-06T00:52:22;2.53;;;2.33;;
8572;SDS011;4324;42.012;24.872;2024-03-06T00:54:49;3.30;;;3.00;;
8572;SDS011;4324;42.012;24.872;2024-03-06T00:57:16;3.97;;;3.00;;
8572;SDS011;4324;42.012;24.872;2024-03-06T00:59:43;3.20;;;2.90;;
8572;SDS011;4324;42.012;24.872;2024-03-06T01:02:11;3.10;;;2.90;;
8572;SDS011;4324;42.012;24.872;2024-03-06T01:04:38;3.43;;;3.13;;
8572;SDS011;4324;42.012;24.872;2024-03-06T01:07:04;2.83;;;2.63;;
8572;SDS011;4324;42.012;24.872;2024-03-06T01:09:31;2.93;;;2.73;;
8572;SDS011;4324;42.012;24.872;2024-03-06T01:11:58;3.30;;;3.00;;
8572;SDS011;4324;42.012;24.872;2024-03-06T01:14:25;3.40;;;3.10;;
8572;SDS011;4324;42.012;24.872;2024-03-06T01:16:52;3.30;;;3.00;;
8572;SDS011;4324;42.012;24.872;2024-03-06T01:19:20;3.43;;;3.17;;
8572;SDS011;4324;42.012;24.872;2024-03-06T01:21:46;3.13;;;2.83;;
8572;SDS011;4324;42.012;24.872;2024-03-06T01:24:14;3.30;;;3.10;;
8572;SDS011;4324;42.012;24.872;2024-03-06T01:26:41;3.50;;;3.20;;
8572;SDS011;4324;42.012;24.872;2024-03-06T01:29:07;3.30;;;3.00;;
8572;SDS011;4324;42.012;24.872;2024-03-06T01:31:34;3.50;;;3.20;;
8572;SDS011;4324;42.012;24.872;2024-03-06T01:34:01;3.60;;;3.30;;
8572;SDS011;4324;42.012;24.872;2024-03-06T01:36:29;3.10;;;2.80;;
8572;SDS011;4324;42.012;24.872;2024-03-06T01:38:56;3.27;;;2.97;;
8572;SDS011;4324;42.012;24.872;2024-03-06T01:41:23;3.80;;;3.20;;
8572;SDS011;4324;42.012;24.872;2024-03-06T01:43:50;3.70;;;3.40;;
8572;SDS011;4324;42.012;24.872;2024-03-06T01:46:17;4.17;;;2.87;;
8572;SDS011;4324;42.012;24.872;2024-03-06T01:48:43;3.57;;;3.10;;
8572;SDS011;4324;42.012;24.872;2024-03-06T01:51:11;3.60;;;3.30;;
8572;SDS011;4324;42.012;24.872;2024-03-06T01:53:39;3.37;;;3.13;;
8572;SDS011;4324;42.012;24.872;2024-03-06T01:56:06;3.67;;;3.37;;
8572;SDS011;4324;42.012;24.872;2024-03-06T01:58:36;4.17;;;3.70;;
8572;SDS011;4324;42.012;24.872;2024-03-06T02:01:05;3.80;;;3.50;;
8572;SDS011;4324;42.012;24.872;2024-03-06T02:03:31;3.80;;;3.40;;
8572;SDS011;4324;42.012;24.872;2024-03-06T02:05:59;6.40;;;3.97;;
8572;SDS011;4324;42.012;24.872;2024-03-06T02:08:27;4.73;;;3.43;;
8572;SDS011;4324;42.012;24.872;2024-03-06T02:10:55;4.00;;;3.53;;
8572;SDS011;4324;42.012;24.872;2024-03-06T02:13:22;3.70;;;3.40;;
8572;SDS011;4324;42.012;24.872;2024-03-06T02:15:49;5.17;;;3.60;;
8572;SDS011;4324;42.012;24.872;2024-03-06T02:18:16;4.80;;;3.90;;
8572;SDS011;4324;42.012;24.872;2024-03-06T02:20:44;4.10;;;3.70;;
8572;SDS011;4324;42.012;24.872;2024-03-06T02:23:12;4.20;;;3.80;;
8572;SDS011;4324;42.012;24.872;2024-03-06T02:25:39;5.17;;;3.87;;
8572;SDS011;4324;42.012;24.872;2024-03-06T02:28:06;3.90;;;3.60;;
8572;SDS011;4324;42.012;24.872;2024-03-06T02:30:34;4.23;;;3.83;;
8572;SDS011;4324;42.012;24.872;2024-03-06T02:33:01;3.73;;;3.43;;
8572;SDS011;4324;42.012;24.872;2024-03-06T02:35:29;4.33;;;3.40;;
8572;SDS011;4324;42.012;24.872;2024-03-06T02:37:57;4.10;;;3.80;;
8572;SDS011;4324;42.012;24.872;2024-03-06T02:40:26;3.83;;;3.53;;
8572;SDS011;4324;42.012;24.872;2024-03-06T02:42:52;4.00;;;3.60;;
8572;SDS011;4324;42.012;24.872;2024-03-06T02:45:19;5.20;;;4.30;;
8572;SDS011;4324;42.012;24.872;2024-03-06T02:47:46;5.67;;;3.80;;
8572;SDS011;4324;42.012;24.872;2024-03-06T02:50:13;5.10;;;3.90;;
8572;SDS011;4324;42.012;24.872;2024-03-06T02:52:40;4.23;;;3.83;;
8572;SDS011;4324;42.012;24.872;2024-03-06T02:55:08;4.57;;;4.17;;
8572;SDS011;4324;42.012;24.872;2024-03-06T02:57:35;3.80;;;3.50;;
8572;SDS011;4324;42.012;24.872;2024-03-06T03:00:02;3.73;;;3.43;;
8572;SDS011;4324;42.012;24.872;2024-03-06T03:02:30;6.10;;;5.50;;
8572;SDS011;4324;42.012;24.872;2024-03-06T03:04:57;6.50;;;5.90;;
8572;SDS011;4324;42.012;24.872;2024-03-06T03:07:24;5.00;;;4.53;;
8572;SDS011;4324;42.012;24.872;2024-03-06T03:09:51;4.50;;;4.10;;
8572;SDS011;4324;42.012;24.872;2024-03-06T03:12:19;5.80;;;4.87;;
8572;SDS011;4324;42.012;24.872;2024-03-06T03:14:46;6.67;;;6.07;;
8572;SDS011;4324;42.012;24.872;2024-03-06T03:17:13;4.07;;;3.67;;
8572;SDS011;4324;42.012;24.872;2024-03-06T03:19:40;4.90;;;4.10;;
8572;SDS011;4324;42.012;24.872;2024-03-06T03:22:07;4.57;;;4.17;;
8572;SDS011;4324;42.012;24.872;2024-03-06T03:24:35;4.20;;;3.80;;
8572;SDS011;4324;42.012;24.872;2024-03-06T03:27:02;4.50;;;4.10;;
8572;SDS011;4324;42.012;24.872;2024-03-06T03:29:30;10.53;;;6.97;;
8572;SDS011;4324;42.012;24.872;2024-03-06T03:31:58;19.23;;;10.97;;
8572;SDS011;4324;42.012;24.872;2024-03-06T03:34:25;8.10;;;6.47;;
8572;SDS011;4324;42.012;24.872;2024-03-06T03:36:51;5.43;;;4.70;;
8572;SDS011;4324;42.012;24.872;2024-03-06T03:39:18;5.33;;;4.63;;
8572;SDS011;4324;42.012;24.872;2024-03-06T03:41:47;4.40;;;4.00;;
8572;SDS011;4324;42.012;24.872;2024-03-06T03:44:15;5.30;;;4.43;;
8572;SDS011;4324;42.012;24.872;2024-03-06T03:46:45;5.00;;;4.50;;
8572;SDS011;4324;42.012;24.872;2024-03-06T03:49:12;6.17;;;5.17;;
8572;SDS011;4324;42.012;24.872;2024-03-06T03:51:39;6.73;;;6.03;;
8572;SDS011;4324;42.012;24.872;2024-03-06T03:54:06;5.53;;;4.93;;
8572;SDS011;4324;42.012;24.872;2024-03-06T03:56:33;5.60;;;5.10;;
8572;SDS011;4324;42.012;24.872;2024-03-06T03:59:02;5.03;;;4.53;;
8572;SDS011;4324;42.012;24.872;2024-03-06T04:01:29;5.47;;;4.97;;
8572;SDS011;4324;42.012;24.872;2024-03-06T04:03:57;5.17;;;4.70;;
8572;SDS011;4324;42.012;24.872;2024-03-06T04:06:24;5.50;;;5.00;;
8572;SDS011;4324;42.012;24.872;2024-03-06T04:08:50;4.87;;;4.47;;
8572;SDS011;4324;42.012;24.872;2024-03-06T04:11:17;5.43;;;4.93;;
8572;SDS011;4324;42.012;24.872;2024-03-06T04:13:44;6.60;;;5.40;;
8572;SDS011;4324;42.012;24.872;2024-03-06T04:16:15;5.70;;;5.20;;
8572;SDS011;4324;42.012;24.872;2024-03-06T04:18:43;5.70;;;5.17;;
8572;SDS011;4324;42.012;24.872;2024-03-06T04:21:12;5.63;;;5.03;;
8572;SDS011;4324;42.012;24.872;2024-03-06T04:23:40;5.33;;;4.83;;
8572;SDS011;4324;42.012;24.872;2024-03-06T04:26:07;7.37;;;6.60;;
8572;SDS011;4324;42.012;24.872;2024-03-06T04:28:33;7.43;;;6.67;;
8572;SDS011;4324;42.012;24.872;2024-03-06T04:31:00;8.33;;;7.47;;
8572;SDS011;4324;42.012;24.872;2024-03-06T04:33:27;9.43;;;8.13;;
8572;SDS011;4324;42.012;24.872;2024-03-06T04:35:55;12.80;;;10.17;;
8572;SDS011;4324;42.012;24.872;2024-03-06T04:38:24;8.13;;;7.23;;
8572;SDS011;4324;42.012;24.872;2024-03-06T04:40:50;6.33;;;5.77;;
8572;SDS011;4324;42.012;24.872;2024-03-06T04:43:17;7.30;;;6.60;;
8572;SDS011;4324;42.012;24.872;2024-03-06T04:45:45;7.30;;;5.97;;
8572;SDS011;4324;42.012;24.872;2024-03-06T04:48:12;7.40;;;6.70;;
8572;SDS011;4324;42.012;24.872;2024-03-06T04:50:38;6.87;;;5.30;;
8572;SDS011;4324;42.012;24.872;2024-03-06T04:53:06;8.27;;;5.90;;
8572;SDS011;4324;42.012;24.872;2024-03-06T04:55:34;6.33;;;5.73;;
8572;SDS011;4324;42.012;24.872;2024-03-06T04:58:02;5.63;;;5.07;;
8572;SDS011;4324;42.012;24.872;2024-03-06T05:00:29;5.90;;;5.20;;
8572;SDS011;4324;42.012;24.872;2024-03-06T05:02:56;6.53;;;5.83;;
8572;SDS011;4324;42.012;24.872;2024-03-06T05:05:23;6.13;;;5.53;;
8572;SDS011;4324;42.012;24.872;2024-03-06T05:07:51;6.67;;;5.97;;
8572;SDS011;4324;42.012;24.872;2024-03-06T05:10:18;6.13;;;5.63;;
8572;SDS011;4324;42.012;24.872;2024-03-06T05:12:46;6.27;;;5.67;;
8572;SDS011;4324;42.012;24.872;2024-03-06T05:15:13;9.80;;;7.37;;
8572;SDS011;4324;42.012;24.872;2024-03-06T05:17:40;11.40;;;9.60;;
8572;SDS011;4324;42.012;24.872;2024-03-06T05:20:07;12.43;;;10.20;;
8572;SDS011;4324;42.012;24.872;2024-03-06T05:22:35;12.53;;;9.37;;
8572;SDS011;4324;42.012;24.872;2024-03-06T05:25:02;13.07;;;10.50;;
8572;SDS011;4324;42.012;24.872;2024-03-06T05:27:30;15.13;;;11.60;;
8572;SDS011;4324;42.012;24.872;2024-03-06T05:29:59;15.37;;;11.83;;
8572;SDS011;4324;42.012;24.872;2024-03-06T05:32:25;16.37;;;12.90;;
8572;SDS011;4324;42.012;24.872;2024-03-06T05:34:52;16.23;;;14.33;;
8572;SDS011;4324;42.012;24.872;2024-03-06T05:37:19;16.37;;;14.67;;
8572;SDS011;4324;42.012;24.872;2024-03-06T05:39:46;15.03;;;12.53;;
8572;SDS011;4324;42.012;24.872;2024-03-06T05:42:13;10.53;;;9.50;;
8572;SDS011;4324;42.012;24.872;2024-03-06T05:44:39;10.43;;;8.93;;
8572;SDS011;4324;42.012;24.872;2024-03-06T05:47:08;12.43;;;10.70;;
8572;SDS011;4324;42.012;24.872;2024-03-06T05:49:34;13.57;;;12.20;;
8572;SDS011;4324;42.012;24.872;2024-03-06T05:52:01;16.40;;;13.33;;
8572;SDS011;4324;42.012;24.872;2024-03-06T05:54:28;15.30;;;13.10;;
8572;SDS011;4324;42.012;24.872;2024-03-06T05:56:58;17.43;;;15.60;;
8572;SDS011;4324;42.012;24.872;2024-03-06T05:59:25;18.87;;;16.40;;
8572;SDS011;4324;42.012;24.872;2024-03-06T06:01:52;17.77;;;14.87;;
8572;SDS011;4324;42.012;24.872;2024-03-06T06:04:20;17.97;;;15.57;;
8572;SDS011;4324;42.012;24.872;2024-03-06T06:06:47;19.93;;;17.63;;
8572;SDS011;4324;42.012;24.872;2024-03-06T06:09:14;17.93;;;15.80;;
8572;SDS011;4324;42.012;24.872;2024-03-06T06:11:42;17.70;;;15.80;;
8572;SDS011;4324;42.012;24.872;2024-03-06T06:14:09;19.03;;;15.73;;
8572;SDS011;4324;42.012;24.872;2024-03-06T06:16:37;21.60;;;18.13;;
8572;SDS011;4324;42.012;24.872;2024-03-06T06:19:06;22.80;;;20.23;;
8572;SDS011;4324;42.012;24.872;2024-03-06T06:21:34;23.13;;;19.87;;
8572;SDS011;4324;42.012;24.872;2024-03-06T06:24:02;23.33;;;20.73;;
8572;SDS011;4324;42.012;24.872;2024-03-06T06:26:30;21.83;;;19.03;;
8572;SDS011;4324;42.012;24.872;2024-03-06T06:28:57;20.03;;;17.23;;
8572;SDS011;4324;42.012;24.872;2024-03-06T06:31:24;21.83;;;18.77;;
8572;SDS011;4324;42.012;24.872;2024-03-06T06:33:52;23.87;;;19.00;;
8572;SDS011;4324;42.012;24.872;2024-03-06T06:36:19;23.50;;;20.73;;
8572;SDS011;4324;42.012;24.872;2024-03-06T06:38:47;28.83;;;22.37;;
8572;SDS011;4324;42.012;24.872;2024-03-06T06:41:15;22.63;;;20.20;;
8572;SDS011;4324;42.012;24.872;2024-03-06T06:43:44;21.67;;;19.00;;
8572;SDS011;4324;42.012;24.872;2024-03-06T06:46:11;22.17;;;19.77;;
8572;SDS011;4324;42.012;24.872;2024-03-06T06:48:38;25.23;;;20.47;;
8572;SDS011;4324;42.012;24.872;2024-03-06T06:51:05;24.93;;;21.87;;
8572;SDS011;4324;42.012;24.872;2024-03-06T06:53:32;28.67;;;21.33;;
8572;SDS011;4324;42.012;24.872;2024-03-06T06:56:00;23.30;;;19.43;;
8572;SDS011;4324;42.012;24.872;2024-03-06T06:58:27;22.53;;;18.80;;
8572;SDS011;4324;42.012;24.872;2024-03-06T07:00:54;22.50;;;19.70;;
8572;SDS011;4324;42.012;24.872;2024-03-06T07:03:21;22.37;;;19.97;;
8572;SDS011;4324;42.012;24.872;2024-03-06T07:05:54;23.23;;;20.67;;
8572;SDS011;4324;42.012;24.872;2024-03-06T07:08:21;25.13;;;21.43;;
8572;SDS011;4324;42.012;24.872;2024-03-06T07:10:49;24.93;;;19.50;;
8572;SDS011;4324;42.012;24.872;2024-03-06T07:13:17;26.87;;;21.63;;
8572;SDS011;4324;42.012;24.872;2024-03-06T07:15:44;23.73;;;20.30;;
8572;SDS011;4324;42.012;24.872;2024-03-06T07:18:11;22.87;;;19.60;;
8572;SDS011;4324;42.012;24.872;2024-03-06T07:20:39;22.93;;;19.70;;
8572;SDS011;4324;42.012;24.872;2024-03-06T07:23:06;21.47;;;18.77;;
8572;SDS011;4324;42.012;24.872;2024-03-06T07:25:33;23.90;;;18.73;;
8572;SDS011;4324;42.012;24.872;2024-03-06T07:28:00;20.20;;;18.00;;
8572;SDS011;4324;42.012;24.872;2024-03-06T07:30:28;24.73;;;20.47;;
8572;SDS011;4324;42.012;24.872;2024-03-06T07:32:56;22.03;;;19.63;;
8572;SDS011;4324;42.012;24.872;2024-03-06T07:35:23;23.47;;;20.97;;
8572;SDS011;4324;42.012;24.872;2024-03-06T07:37:50;24.80;;;19.57;;
8572;SDS011;4324;42.012;24.872;2024-03-06T07:40:17;24.30;;;21.20;;
8572;SDS011;4324;42.012;24.872;2024-03-06T07:42:44;23.10;;;20.63;;
8572;SDS011;4324;42.012;24.872;2024-03-06T07:45:11;25.33;;;22.57;;
8572;SDS011;4324;42.012;24.872;2024-03-06T07:47:40;25.33;;;20.93;;
8572;SDS011;4324;42.012;24.872;2024-03-06T07:50:08;26.70;;;21.07;;
8572;SDS011;4324;42.012;24.872;2024-03-06T07:52:36;27.03;;;21.33;;
8572;SDS011;4324;42.012;24.872;2024-03-06T07:55:03;28.33;;;23.47;;
8572;SDS011;4324;42.012;24.872;2024-03-06T07:57:30;23.43;;;20.83;;
8572;SDS011;4324;42.012;24.872;2024-03-06T07:59:57;26.90;;;21.93;;
8572;SDS011;4324;42.012;24.872;2024-03-06T08:02:24;27.07;;;20.43;;
8572;SDS011;4324;42.012;24.872;2024-03-06T08:04:52;23.37;;;20.77;;
8572;SDS011;4324;42.012;24.872;2024-03-06T08:07:19;28.23;;;23.40;;
8572;SDS011;4324;42.012;24.872;2024-03-06T08:09:46;21.87;;;18.63;;
8572;SDS011;4324;42.012;24.872;2024-03-06T08:12:13;22.77;;;19.73;;
8572;SDS011;4324;42.012;24.872;2024-03-06T08:14:40;20.07;;;17.63;;
8572;SDS011;4324;42.012;24.872;2024-03-06T08:17:07;25.50;;;18.93;;
8572;SDS011;4324;42.012;24.872;2024-03-06T08:19:34;28.07;;;21.97;;
8572;SDS011;4324;42.012;24.872;2024-03-06T08:22:02;24.83;;;20.53;;
8572;SDS011;4324;42.012;24.872;2024-03-06T08:24:29;29.30;;;23.47;;
8572;SDS011;4324;42.012;24.872;2024-03-06T08:26:56;24.80;;;21.37;;
8572;SDS011;4324;42.012;24.872;2024-03-06T08:29:23;27.10;;;20.00;;
8572;SDS011;4324;42.012;24.872;2024-03-06T08:31:50;22.80;;;20.00;;
8572;SDS011;4324;42.012;24.872;2024-03-06T08:34:16;28.87;;;19.97;;
8572;SDS011;4324;42.012;24.872;2024-03-06T08:36:43;48.20;;;36.60;;
8572;SDS011;4324;42.012;24.872;2024-03-06T08:39:12;38.27;;;30.00;;
8572;SDS011;4324;42.012;24.872;2024-03-06T08:41:41;30.60;;;23.57;;
8572;SDS011;4324;42.012;24.872;2024-03-06T08:44:08;38.00;;;28.73;;
8572;SDS011;4324;42.012;24.872;2024-03-06T08:46:35;28.03;;;20.57;;
8572;SDS011;4324;42.012;24.872;2024-03-06T08:49:03;26.13;;;20.60;;
8572;SDS011;4324;42.012;24.872;2024-03-06T08:51:30;22.07;;;18.90;;
8572;SDS011;4324;42.012;24.872;2024-03-06T08:53:56;25.73;;;19.50;;
8572;SDS011;4324;42.012;24.872;2024-03-06T08:56:25;23.00;;;16.33;;
8572;SDS011;4324;42.012;24.872;2024-03-06T08:58:52;24.40;;;16.30;;
8572;SDS011;4324;42.012;24.872;2024-03-06T09:01:19;23.33;;;17.27;;
8572;SDS011;4324;42.012;24.872;2024-03-06T09:03:46;18.87;;;16.37;;
8572;SDS011;4324;42.012;24.872;2024-03-06T09:06:13;23.70;;;16.33;;
8572;SDS011;4324;42.012;24.872;2024-03-06T09:08:39;18.27;;;14.00;;
8572;SDS011;4324;42.012;24.872;2024-03-06T09:11:06;18.90;;;15.67;;
8572;SDS011;4324;42.012;24.872;2024-03-06T09:13:34;18.57;;;14.20;;
8572;SDS011;4324;42.012;24.872;2024-03-06T09:16:02;15.97;;;14.27;;
8572;SDS011;4324;42.012;24.872;2024-03-06T09:18:29;18.60;;;15.67;;
8572;SDS011;4324;42.012;24.872;2024-03-06T09:20:55;21.20;;;15.83;;
8572;SDS011;4324;42.012;24.872;2024-03-06T09:23:22;16.53;;;14.07;;
8572;SDS011;4324;42.012;24.872;2024-03-06T09:25:51;20.30;;;15.63;;
8572;SDS011;4324;42.012;24.872;2024-03-06T09:28:19;27.63;;;17.50;;
8572;SDS011;4324;42.012;24.872;2024-03-06T09:30:47;22.30;;;19.37;;
8572;SDS011;4324;42.012;24.872;2024-03-06T09:33:14;19.03;;;14.97;;
8572;SDS011;4324;42.012;24.872;2024-03-06T09:35:41;20.40;;;16.57;;
8572;SDS011;4324;42.012;24.872;2024-03-06T09:38:10;23.67;;;16.77;;
8572;SDS011;4324;42.012;24.872;2024-03-06T09:40:38;17.30;;;15.17;;
8572;SDS011;4324;42.012;24.872;2024-03-06T09:43:06;19.43;;;15.20;;
8572;SDS011;4324;42.012;24.872;2024-03-06T09:45:33;16.40;;;14.57;;
8572;SDS011;4324;42.012;24.872;2024-03-06T09:48:04;18.57;;;15.97;;
8572;SDS011;4324;42.012;24.872;2024-03-06T09:50:32;16.60;;;14.40;;
8572;SDS011;4324;42.012;24.872;2024-03-06T09:53:06;24.73;;;19.93;;
8572;SDS011;4324;42.012;24.872;2024-03-06T09:55:36;17.33;;;15.33;;
8572;SDS011;4324;42.012;24.872;2024-03-06T09:58:04;17.57;;;15.67;;
8572;SDS011;4324;42.012;24.872;2024-03-06T10:00:32;16.30;;;13.60;;
8572;SDS011;4324;42.012;24.872;2024-03-06T10:03:01;15.90;;;13.33;;
8572;SDS011;4324;42.012;24.872;2024-03-06T10:05:33;16.40;;;14.17;;
8572;SDS011;4324;42.012;24.872;2024-03-06T10:08:00;20.03;;;15.57;;
8572;SDS011;4324;42.012;24.872;2024-03-06T10:10:29;18.43;;;14.70;;
8572;SDS011;4324;42.012;24.872;2024-03-06T10:12:56;17.50;;;13.97;;
8572;SDS011;4324;42.012;24.872;2024-03-06T10:15:25;17.33;;;13.87;;
8572;SDS011;4324;42.012;24.872;2024-03-06T10:20:41;16.77;;;13.90;;
8572;SDS011;4324;42.012;24.872;2024-03-06T10:23:09;20.30;;;16.27;;
8572;SDS011;4324;42.012;24.872;2024-03-06T10:25:36;17.30;;;14.80;;
8572;SDS011;4324;42.012;24.872;2024-03-06T10:28:07;18.33;;;14.90;;
8572;SDS011;4324;42.012;24.872;2024-03-06T10:30:35;16.07;;;12.97;;
8572;SDS011;4324;42.012;24.872;2024-03-06T10:33:03;13.27;;;11.80;;
8572;SDS011;4324;42.012;24.872;2024-03-06T10:35:32;14.87;;;11.80;;
8572;SDS011;4324;42.012;24.872;2024-03-06T10:37:59;15.17;;;12.43;;
8572;SDS011;4324;42.012;24.872;2024-03-06T10:40:27;17.47;;;13.23;;
8572;SDS011;4324;42.012;24.872;2024-03-06T10:42:58;15.57;;;13.87;;
8572;SDS011;4324;42.012;24.872;2024-03-06T10:45:28;19.07;;;13.60;;
8572;SDS011;4324;42.012;24.872;2024-03-06T10:48:00;13.20;;;11.90;;
8572;SDS011;4324;42.012;24.872;2024-03-06T10:50:29;12.73;;;11.33;;
8572;SDS011;4324;42.012;24.872;2024-03-06T10:52:58;14.47;;;12.10;;
8572;SDS011;4324;42.012;24.872;2024-03-06T10:55:26;15.97;;;12.50;;
8572;SDS011;4324;42.012;24.872;2024-03-06T10:57:59;13.90;;;12.50;;
8572;SDS011;4324;42.012;24.872;2024-03-06T11:00:27;14.97;;;11.00;;
8572;SDS011;4324;42.012;24.872;2024-03-06T11:02:55;16.50;;;14.20;;
8572;SDS011;4324;42.012;24.872;2024-03-06T11:05:24;13.80;;;11.43;;
8572;SDS011;4324;42.012;24.872;2024-03-06T11:07:50;14.43;;;13.03;;
8572;SDS011;4324;42.012;24.872;2024-03-06T11:10:30;12.83;;;11.47;;
8572;SDS011;4324;42.012;24.872;2024-03-06T11:12:58;13.13;;;11.47;;
8572;SDS011;4324;42.012;24.872;2024-03-06T11:15:25;13.57;;;12.23;;
8572;SDS011;4324;42.012;24.872;2024-03-06T11:17:52;14.10;;;12.60;;
8572;SDS011;4324;42.012;24.872;2024-03-06T11:20:20;12.93;;;11.53;;
8572;SDS011;4324;42.012;24.872;2024-03-06T11:23:07;12.97;;;11.67;;
8572;SDS011;4324;42.012;24.872;2024-03-06T11:28:28;17.97;;;16.07;;
8572;SDS011;4324;42.012;24.872;2024-03-06T11:30:57;13.30;;;10.73;;
8572;SDS011;4324;42.012;24.872;2024-03-06T11:33:28;12.37;;;11.10;;
8572;SDS011;4324;42.012;24.872;2024-03-06T11:36:14;14.50;;;11.47;;
8572;SDS011;4324;42.012;24.872;2024-03-06T11:38:43;15.03;;;12.37;;
8572;SDS011;4324;42.012;24.872;2024-03-06T11:41:14;12.17;;;10.90;;
8572;SDS011;4324;42.012;24.872;2024-03-06T11:43:44;12.97;;;11.77;;
8572;SDS011;4324;42.012;24.872;2024-03-06T11:46:11;14.33;;;12.10;;
8572;SDS011;4324;42.012;24.872;2024-03-06T11:48:38;16.90;;;14.47;;
8572;SDS011;4324;42.012;24.872;2024-03-06T11:51:05;16.73;;;12.73;;
8572;SDS011;4324;42.012;24.872;2024-03-06T11:53:32;13.83;;;11.17;;
8572;SDS011;4324;42.012;24.872;2024-03-06T11:56:00;11.40;;;10.20;;
8572;SDS011;4324;42.012;24.872;2024-03-06T11:58:29;12.23;;;10.93;;
8572;SDS011;4324;42.012;24.872;2024-03-06T12:00:56;14.73;;;11.50;;
8572;SDS011;4324;42.012;24.872;2024-03-06T12:03:22;11.90;;;10.40;;
8572;SDS011;4324;42.012;24.872;2024-03-06T12:05:50;12.60;;;10.70;;
8572;SDS011;4324;42.012;24.872;2024-03-06T12:08:18;11.47;;;10.37;;
8572;SDS011;4324;42.012;24.872;2024-03-06T12:10:45;12.47;;;11.20;;
8572;SDS011;4324;42.012;24.872;2024-03-06T12:13:13;16.03;;;13.53;;
8572;SDS011;4324;42.012;24.872;2024-03-06T12:15:43;11.63;;;10.23;;
8572;SDS011;4324;42.012;24.872;2024-03-06T12:18:10;12.77;;;11.30;;
8572;SDS011;4324;42.012;24.872;2024-03-06T12:20:40;13.50;;;10.63;;
8572;SDS011;4324;42.012;24.872;2024-03-06T12:23:18;12.63;;;11.33;;
8572;SDS011;4324;42.012;24.872;2024-03-06T12:25:47;17.00;;;11.90;;
8572;SDS011;4324;42.012;24.872;2024-03-06T12:28:14;13.00;;;10.40;;
8572;SDS011;4324;42.012;24.872;2024-03-06T12:30:42;13.07;;;11.27;;
8572;SDS011;4324;42.012;24.872;2024-03-06T12:33:10;14.63;;;11.27;;
8572;SDS011;4324;42.012;24.872;2024-03-06T12:35:40;12.60;;;11.00;;
8572;SDS011;4324;42.012;24.872;2024-03-06T12:38:13;12.83;;;11.37;;
8572;SDS011;4324;42.012;24.872;2024-03-06T12:40:40;13.23;;;10.70;;
8572;SDS011;4324;42.012;24.872;2024-03-06T12:43:07;13.87;;;12.57;;
8572;SDS011;4324;42.012;24.872;2024-03-06T12:45:35;18.33;;;13.43;;
8572;SDS011;4324;42.012;24.872;2024-03-06T12:48:04;15.67;;;12.43;;
8572;SDS011;4324;42.012;24.872;2024-03-06T12:50:32;14.23;;;12.70;;
8572;SDS011;4324;42.012;24.872;2024-03-06T12:52:58;16.40;;;13.10;;
8572;SDS011;4324;42.012;24.872;2024-03-06T12:55:25;15.30;;;13.80;;
8572;SDS011;4324;42.012;24.872;2024-03-06T12:57:52;14.73;;;13.10;;
8572;SDS011;4324;42.012;24.872;2024-03-06T13:00:19;24.67;;;14.07;;
8572;SDS011;4324;42.012;24.872;2024-03-06T13:02:46;13.10;;;11.73;;
8572;SDS011;4324;42.012;24.872;2024-03-06T13:05:15;13.47;;;11.50;;
8572;SDS011;4324;42.012;24.872;2024-03-06T13:07:42;14.20;;;12.77;;
8572;SDS011;4324;42.012;24.872;2024-03-06T13:10:09;15.30;;;13.70;;
8572;SDS011;4324;42.012;24.872;2024-03-06T13:12:37;15.73;;;13.50;;
8572;SDS011;4324;42.012;24.872;2024-03-06T13:15:04;18.47;;;13.10;;
8572;SDS011;4324;42.012;24.872;2024-03-06T13:17:32;15.10;;;13.27;;
8572;SDS011;4324;42.012;24.872;2024-03-06T13:19:59;17.63;;;13.40;;
8572;SDS011;4324;42.012;24.872;2024-03-06T13:22:28;14.37;;;12.00;;
8572;SDS011;4324;42.012;24.872;2024-03-06T13:24:55;20.77;;;14.00;;
8572;SDS011;4324;42.012;24.872;2024-03-06T13:27:22;13.67;;;12.27;;
8572;SDS011;4324;42.012;24.872;2024-03-06T13:29:49;13.67;;;12.27;;
8572;SDS011;4324;42.012;24.872;2024-03-06T13:32:17;13.73;;;11.83;;
8572;SDS011;4324;42.012;24.872;2024-03-06T13:34:44;16.90;;;11.40;;
8572;SDS011;4324;42.012;24.872;2024-03-06T13:37:10;15.50;;;13.20;;
8572;SDS011;4324;42.012;24.872;2024-03-06T13:39:39;18.57;;;13.80;;
8572;SDS011;4324;42.012;24.872;2024-03-06T13:42:06;15.90;;;12.17;;
8572;SDS011;4324;42.012;24.872;2024-03-06T13:44:34;13.37;;;11.03;;
8572;SDS011;4324;42.012;24.872;2024-03-06T13:47:01;13.13;;;11.77;;
8572;SDS011;4324;42.012;24.872;2024-03-06T13:49:35;13.73;;;12.30;;
8572;SDS011;4324;42.012;24.872;2024-03-06T13:52:07;12.73;;;10.87;;
8572;SDS011;4324;42.012;24.872;2024-03-06T13:54:37;14.17;;;11.80;;
8572;SDS011;4324;42.012;24.872;2024-03-06T13:57:06;12.27;;;10.53;;
8572;SDS011;4324;42.012;24.872;2024-03-06T13:59:33;13.80;;;11.40;;
8572;SDS011;4324;42.012;24.872;2024-03-06T14:02:01;11.43;;;10.23;;
8572;SDS011;4324;42.012;24.872;2024-03-06T14:04:29;14.03;;;12.30;;
8572;SDS011;4324;42.012;24.872;2024-03-06T14:06:57;13.83;;;10.93;;
8572;SDS011;4324;42.012;24.872;2024-03-06T14:09:25;12.13;;;9.23;;
8572;SDS011;4324;42.012;24.872;2024-03-06T14:11:53;13.77;;;10.23;;
8572;SDS011;4324;42.012;24.872;2024-03-06T14:14:21;16.17;;;12.20;;
8572;SDS011;4324;42.012;24.872;2024-03-06T14:16:48;14.93;;;11.67;;
8572;SDS011;4324;42.012;24.872;2024-03-06T14:19:15;15.17;;;11.80;;
8572;SDS011;4324;42.012;24.872;2024-03-06T14:21:41;16.50;;;11.50;;
8572;SDS011;4324;42.012;24.872;2024-03-06T14:24:08;17.87;;;11.93;;
8572;SDS011;4324;42.012;24.872;2024-03-06T14:26:35;11.63;;;10.43;;
8572;SDS011;4324;42.012;24.872;2024-03-06T14:29:05;14.53;;;11.33;;
8572;SDS011;4324;42.012;24.872;2024-03-06T14:31:33;12.80;;;11.53;;
8572;SDS011;4324;42.012;24.872;2024-03-06T14:34:00;16.17;;;11.77;;
8572;SDS011;4324;42.012;24.872;2024-03-06T14:36:26;14.27;;;10.87;;
8572;SDS011;4324;42.012;24.872;2024-03-06T14:38:53;13.30;;;11.27;;
8572;SDS011;4324;42.012;24.872;2024-03-06T14:41:20;11.00;;;9.87;;
8572;SDS011;4324;42.012;24.872;2024-03-06T14:43:47;12.83;;;10.20;;
8572;SDS011;4324;42.012;24.872;2024-03-06T14:46:15;12.90;;;10.63;;
8572;SDS011;4324;42.012;24.872;2024-03-06T14:48:43;12.73;;;10.50;;
8572;SDS011;4324;42.012;24.872;2024-03-06T14:51:11;12.10;;;10.53;;